createdAt,value
2023-03-16T00:00:18.636Z,88.36
2023-03-16T00:03:03.926Z,88.75
2023-03-16T00:05:51.185Z,88.16
2023-03-16T00:08:36.755Z,88.76
2023-03-16T00:11:22.006Z,88.33
2023-03-16T00:14:07.242Z,88.34
2023-03-16T00:16:52.739Z,88.48
2023-03-16T00:19:38.123Z,88.33
2023-03-16T00:22:29.063Z,88.20
2023-03-16T00:25:15.209Z,87.86
2023-03-16T00:28:00.839Z,88.39
2023-03-16T00:30:46.663Z,88.37
2023-03-16T00:33:32.337Z,88.58
2023-03-16T00:36:17.776Z,88.58
2023-03-16T00:39:02.551Z,88.37
2023-03-16T00:41:48.074Z,88.59
2023-03-16T00:44:33.292Z,88.57
2023-03-16T00:47:18.804Z,88.57
2023-03-16T00:50:04.751Z,88.98
2023-03-16T00:52:50.283Z,88.62
2023-03-16T00:55:35.825Z,88.81
2023-03-16T00:58:20.828Z,88.82
2023-03-16T01:01:09.130Z,88.79
2023-03-16T01:03:54.484Z,88.61
2023-03-16T01:06:40.344Z,89.24
2023-03-16T01:09:25.775Z,89.29
2023-03-16T01:12:14.422Z,89.31
2023-03-16T01:15:00.212Z,89.59
2023-03-16T01:17:45.693Z,89.80
2023-03-16T01:20:30.741Z,90.13
2023-03-16T01:23:17.242Z,90.16
2023-03-16T01:26:02.655Z,90.33
2023-03-16T01:28:47.659Z,90.08
2023-03-16T01:31:33.107Z,90.31
2023-03-16T01:34:18.501Z,90.73
2023-03-16T01:37:03.621Z,90.47
2023-03-16T01:39:49.692Z,90.09
2023-03-16T01:42:46.216Z,90.22
2023-03-16T01:46:13.858Z,90.13
2023-03-16T01:49:19.597Z,91.67
2023-03-16T01:52:08.470Z,92.16
2023-03-16T01:55:05.800Z,92.26
2023-03-16T01:57:50.761Z,92.51
2023-03-16T02:00:35.516Z,92.71
2023-03-16T02:03:21.295Z,92.52
2023-03-16T02:06:12.312Z,92.85
2023-03-16T02:08:58.485Z,92.71
2023-03-16T02:11:43.610Z,93.20
2023-03-16T02:14:28.971Z,92.94
2023-03-16T02:17:16.099Z,92.63
2023-03-16T02:20:27.627Z,92.57
2023-03-16T02:23:16.610Z,93.01
2023-03-16T02:26:23.789Z,93.19
2023-03-16T02:29:46.358Z,92.43
2023-03-16T02:32:32.722Z,92.32
2023-03-16T02:35:18.262Z,92.28
2023-03-16T02:38:03.822Z,91.98
2023-03-16T02:40:58.264Z,92.05
2023-03-16T02:44:09.352Z,91.89
2023-03-16T02:47:03.134Z,91.61
2023-03-16T02:49:48.102Z,91.39
2023-03-16T02:52:35.003Z,91.27
2023-03-16T02:55:20.770Z,91.04
2023-03-16T02:58:05.781Z,90.72
2023-03-16T03:00:50.955Z,90.60
2023-03-16T03:03:36.226Z,90.67
2023-03-16T03:06:21.581Z,90.12
2023-03-16T03:09:08.819Z,90.29
2023-03-16T03:11:53.603Z,90.05
2023-03-16T03:14:39.445Z,90.14
2023-03-16T03:17:25.170Z,90.10
2023-03-16T03:20:12.402Z,90.24
2023-03-16T03:22:57.741Z,89.95
2023-03-16T03:25:43.084Z,89.93
2023-03-16T03:28:28.677Z,89.72
2023-03-16T03:31:19.702Z,89.95
2023-03-16T03:34:04.910Z,89.52
2023-03-16T03:36:50.718Z,90.05
2023-03-16T03:39:36.293Z,89.72
2023-03-16T03:42:21.792Z,89.85
2023-03-16T03:45:08.201Z,89.82
2023-03-16T03:47:53.228Z,89.17
2023-03-16T03:50:38.605Z,89.08
2023-03-16T03:53:23.975Z,88.96
2023-03-16T03:56:09.227Z,89.04
2023-03-16T03:58:54.695Z,89.54
2023-03-16T04:01:39.951Z,89.47
2023-03-16T04:04:25.472Z,89.03
2023-03-16T04:07:11.357Z,89.35
2023-03-16T04:09:56.800Z,88.77
2023-03-16T04:12:42.193Z,88.70
2023-03-16T04:15:27.816Z,88.32
2023-03-16T04:18:13.081Z,88.36
2023-03-16T04:20:58.235Z,88.45
2023-03-16T04:23:44.319Z,88.14
2023-03-16T04:26:29.314Z,87.99
2023-03-16T04:29:16.098Z,87.73
2023-03-16T04:32:01.364Z,87.73
2023-03-16T04:34:46.666Z,87.53
2023-03-16T04:37:31.995Z,87.21
2023-03-16T04:40:17.433Z,86.95
2023-03-16T04:43:02.536Z,87.21
2023-03-16T04:45:47.779Z,86.70
2023-03-16T04:48:33.008Z,86.50
2023-03-16T04:51:18.174Z,86.80
2023-03-16T04:54:04.177Z,86.75
2023-03-16T04:56:49.341Z,86.73
2023-03-16T04:59:34.332Z,86.66
2023-03-16T05:02:19.928Z,86.81
2023-03-16T05:05:05.686Z,86.85
2023-03-16T05:07:50.874Z,86.48
2023-03-16T05:10:36.048Z,86.56
2023-03-16T05:13:21.278Z,86.48
2023-03-16T05:16:07.171Z,86.38
2023-03-16T05:18:52.733Z,86.58
2023-03-16T05:21:38.042Z,86.22
2023-03-16T05:24:23.439Z,86.32
2023-03-16T05:27:08.467Z,85.46
2023-03-16T05:29:53.625Z,85.79
2023-03-16T05:32:38.628Z,85.59
2023-03-16T05:35:24.373Z,85.29
2023-03-16T05:38:09.824Z,85.25
2023-03-16T05:40:55.314Z,85.06
2023-03-16T05:43:40.580Z,85.21
2023-03-16T05:46:25.595Z,85.34
2023-03-16T05:49:10.540Z,84.86
2023-03-16T05:51:56.011Z,84.88
2023-03-16T05:54:41.600Z,84.94
2023-03-16T05:57:26.638Z,84.77
2023-03-16T06:00:14.449Z,84.19
2023-03-16T06:03:00.137Z,83.86
2023-03-16T06:05:45.773Z,84.02
2023-03-16T06:08:30.865Z,83.85
2023-03-16T06:11:16.832Z,83.87
2023-03-16T06:14:02.206Z,83.67
2023-03-16T06:16:47.249Z,83.45
2023-03-16T06:19:32.581Z,83.31
2023-03-16T06:22:17.929Z,83.23
2023-03-16T06:25:03.314Z,83.01
2023-03-16T06:27:48.763Z,82.88
2023-03-16T06:30:34.208Z,83.03
2023-03-16T06:33:19.712Z,82.91
2023-03-16T06:36:04.763Z,82.65
2023-03-16T06:38:49.870Z,83.31
2023-03-16T06:41:34.864Z,83.17
2023-03-16T06:44:20.152Z,83.38
2023-03-16T06:47:05.792Z,83.03
2023-03-16T06:49:51.006Z,83.33
2023-03-16T06:52:36.111Z,83.14
2023-03-16T06:55:21.354Z,82.75
2023-03-16T06:58:07.285Z,82.92
2023-03-16T07:00:52.796Z,82.24
2023-03-16T07:03:38.649Z,81.84
2023-03-16T07:06:24.292Z,81.50
2023-03-16T07:09:09.789Z,81.33
2023-03-16T07:11:55.128Z,80.56
2023-03-16T07:14:40.349Z,80.69
2023-03-16T07:17:25.954Z,80.67
2023-03-16T07:20:12.254Z,80.16
2023-03-16T07:22:57.464Z,80.22
2023-03-16T07:25:42.869Z,79.80
2023-03-16T07:28:27.837Z,79.77
2023-03-16T07:31:13.805Z,79.46
2023-03-16T07:33:59.258Z,78.86
2023-03-16T07:36:44.663Z,78.54
2023-03-16T07:39:30.162Z,78.72
2023-03-16T07:42:15.566Z,78.43
2023-03-16T07:45:01.404Z,78.30
2023-03-16T07:47:46.494Z,78.77
2023-03-16T07:50:31.881Z,77.88
2023-03-16T07:53:17.700Z,78.00
2023-03-16T07:56:02.878Z,77.06
2023-03-16T07:58:48.226Z,76.52
2023-03-16T08:04:10.685Z,76.57
2023-03-16T08:06:55.732Z,76.46
2023-03-16T08:09:41.693Z,75.68
2023-03-16T08:12:27.076Z,74.72
2023-03-16T08:15:12.474Z,73.66
2023-03-16T08:18:01.431Z,72.71
2023-03-16T08:20:47.317Z,71.88
2023-03-16T08:23:32.714Z,70.80
2023-03-16T08:26:19.853Z,70.38
2023-03-16T08:29:05.189Z,70.01
2023-03-16T08:31:52.568Z,69.30
2023-03-16T08:34:38.058Z,68.52
2023-03-16T08:37:23.363Z,67.43
2023-03-16T08:40:10.435Z,67.56
2023-03-16T08:42:55.846Z,66.26
2023-03-16T08:51:49.610Z,66.22
2023-03-16T08:54:34.809Z,66.98
2023-03-16T08:57:19.834Z,66.64
2023-03-16T09:00:06.402Z,65.70
2023-03-16T09:02:51.554Z,65.35
2023-03-16T09:05:36.998Z,64.91
2023-03-16T09:08:22.412Z,62.87
2023-03-16T09:11:10.616Z,62.83
2023-03-16T09:13:56.045Z,62.90
2023-03-16T09:16:41.444Z,62.35
2023-03-16T09:19:28.021Z,63.68
2023-03-16T09:22:15.771Z,62.57
2023-03-16T09:25:01.258Z,62.36
2023-03-16T09:27:46.529Z,61.04
2023-03-16T09:30:32.096Z,60.25
2023-03-16T09:33:17.590Z,59.93
2023-03-16T09:36:03.063Z,59.96
2023-03-16T09:38:48.390Z,59.64
2023-03-16T09:41:55.174Z,58.46
2023-03-16T09:44:59.512Z,58.29
2023-03-16T09:47:48.276Z,57.53
2023-03-16T09:50:48.424Z,57.94
2023-03-16T09:53:38.444Z,57.47
2023-03-16T09:56:51.850Z,57.41
2023-03-16T09:59:37.283Z,57.01
2023-03-16T10:02:46.764Z,56.90
2023-03-16T10:05:34.093Z,57.29
2023-03-16T10:08:45.729Z,57.25
2023-03-16T10:11:36.556Z,57.96
2023-03-16T10:14:43.496Z,57.05
2023-03-16T10:17:41.256Z,57.29
2023-03-16T10:20:31.283Z,57.61
2023-03-16T10:23:22.836Z,57.30
2023-03-16T10:26:21.587Z,57.96
2023-03-16T10:29:12.087Z,56.96
2023-03-16T10:32:11.565Z,56.04
2023-03-16T10:35:02.214Z,57.24
2023-03-16T10:37:47.603Z,56.95
2023-03-16T10:40:37.873Z,57.35
2023-03-16T10:43:23.928Z,56.62
2023-03-16T10:46:10.813Z,57.46
2023-03-16T10:49:00.087Z,57.22
2023-03-16T10:51:45.825Z,56.51
2023-03-16T10:54:47.622Z,57.03
2023-03-16T10:57:35.746Z,56.76
2023-03-16T11:00:26.339Z,56.76
2023-03-16T11:03:38.388Z,57.78
2023-03-16T11:06:32.631Z,57.13
2023-03-16T11:09:26.846Z,56.80
2023-03-16T11:12:25.941Z,57.47
2023-03-16T11:15:25.268Z,57.10
2023-03-16T11:18:31.983Z,57.90
2023-03-16T11:21:36.264Z,57.30
2023-03-16T11:24:21.362Z,56.52
2023-03-16T11:27:18.913Z,56.92
2023-03-16T11:30:16.068Z,56.85
2023-03-16T11:33:01.568Z,56.72
2023-03-16T11:36:04.991Z,55.66
2023-03-16T11:39:02.745Z,54.67
2023-03-16T11:41:50.882Z,54.63
2023-03-16T11:44:38.710Z,55.42
2023-03-16T11:47:42.214Z,54.94
2023-03-16T11:50:55.634Z,55.31
2023-03-16T11:53:40.816Z,54.88
2023-03-16T11:57:07.477Z,54.23
2023-03-16T12:00:01.035Z,53.91
2023-03-16T12:02:53.123Z,53.18
2023-03-16T12:06:22.124Z,54.15
2023-03-16T12:09:20.395Z,53.95
2023-03-16T12:12:27.087Z,54.04
2023-03-16T12:15:15.227Z,53.96
2023-03-16T12:18:06.767Z,55.01
2023-03-16T12:21:11.400Z,53.73
2023-03-16T12:24:00.558Z,53.31
2023-03-16T12:26:46.023Z,53.96
2023-03-16T12:29:50.176Z,53.63
2023-03-16T12:32:49.931Z,53.30
2023-03-16T12:35:53.352Z,53.35
2023-03-16T12:38:54.641Z,53.02
2023-03-16T12:41:43.047Z,53.55
2023-03-16T12:44:37.655Z,54.46
2023-03-16T12:47:36.715Z,55.70
2023-03-16T12:50:21.973Z,54.96
2023-03-16T12:53:07.329Z,55.14
2023-03-16T12:56:00.206Z,55.50
2023-03-16T12:58:50.756Z,56.29
2023-03-16T13:01:42.962Z,55.80
2023-03-16T13:04:35.429Z,55.52
2023-03-16T13:07:24.361Z,55.63
2023-03-16T13:10:13.665Z,56.12
2023-03-16T13:13:11.770Z,56.20
2023-03-16T13:16:23.875Z,56.43
2023-03-16T13:19:28.202Z,56.27
2023-03-16T13:22:22.556Z,56.19
2023-03-16T13:25:34.619Z,57.14
2023-03-16T13:28:20.654Z,56.24
2023-03-16T13:31:36.347Z,55.94
2023-03-16T13:34:31.749Z,56.10
2023-03-16T13:37:20.387Z,55.85
2023-03-16T13:40:19.083Z,56.14
2023-03-16T13:43:04.511Z,55.42
2023-03-16T13:45:51.867Z,55.44
2023-03-16T13:48:37.733Z,53.99
2023-03-16T13:51:23.214Z,54.38
2023-03-16T13:54:27.632Z,54.37
2023-03-16T13:57:21.105Z,54.23
2023-03-16T14:00:22.345Z,53.78
2023-03-16T14:03:19.784Z,53.32
2023-03-16T14:06:06.799Z,53.43
2023-03-16T14:08:56.452Z,53.33
2023-03-16T14:11:43.065Z,54.03
2023-03-16T14:14:31.755Z,53.90
2023-03-16T14:17:20.502Z,54.55
2023-03-16T14:20:06.756Z,54.08
2023-03-16T14:22:53.525Z,54.40
2023-03-16T14:25:38.593Z,54.78
2023-03-16T14:28:34.142Z,54.54
2023-03-16T14:31:20.904Z,54.85
2023-03-16T14:34:21.273Z,54.37
2023-03-16T14:37:12.818Z,54.93
2023-03-16T14:40:02.560Z,54.22
2023-03-16T14:42:47.927Z,54.39
2023-03-16T14:45:35.709Z,55.25
2023-03-16T14:48:21.934Z,55.01
2023-03-16T14:51:14.254Z,54.47
2023-03-16T14:54:07.935Z,54.03
2023-03-16T14:56:58.207Z,54.00
2023-03-16T14:59:43.771Z,53.80
2023-03-16T15:02:31.344Z,53.30
2023-03-16T15:05:24.063Z,53.47
2023-03-16T15:08:45.987Z,53.01
2023-03-16T15:11:31.372Z,53.89
2023-03-16T15:14:16.234Z,54.17
2023-03-16T15:17:01.281Z,53.96
2023-03-16T15:19:46.178Z,53.63
2023-03-16T15:22:33.788Z,53.07
2023-03-16T15:25:30.292Z,53.29
2023-03-16T15:28:18.601Z,53.50
2023-03-16T15:31:04.424Z,53.65
2023-03-16T15:33:49.415Z,54.72
2023-03-16T15:36:34.952Z,54.25
2023-03-16T15:39:23.919Z,54.03
2023-03-16T15:42:19.306Z,53.39
2023-03-16T15:45:10.925Z,53.59
2023-03-16T15:47:56.242Z,54.37
2023-03-16T15:50:47.001Z,54.23
2023-03-16T15:53:43.359Z,53.34
2023-03-16T15:56:33.495Z,53.83
2023-03-16T15:59:20.115Z,54.28
2023-03-16T16:02:25.900Z,53.30
2023-03-16T16:05:11.319Z,53.76
2023-03-16T16:07:56.590Z,54.19
2023-03-16T16:10:42.787Z,54.59
2023-03-16T16:13:43.785Z,55.00
2023-03-16T16:16:31.592Z,55.06
2023-03-16T16:19:16.975Z,55.29
2023-03-16T16:22:01.889Z,55.84
2023-03-16T16:24:47.013Z,55.86
2023-03-16T16:27:32.209Z,56.14
2023-03-16T16:30:27.334Z,56.06
2023-03-16T16:33:22.079Z,56.34
2023-03-16T16:36:14.376Z,56.89
2023-03-16T16:38:59.514Z,56.86
2023-03-16T16:41:44.750Z,58.02
2023-03-16T16:44:33.441Z,58.56
2023-03-16T16:47:20.385Z,58.49
2023-03-16T16:50:21.052Z,58.57
2023-03-16T16:53:19.706Z,58.58
2023-03-16T16:56:05.095Z,58.54
2023-03-16T16:58:50.137Z,58.80
2023-03-16T17:01:35.387Z,58.83
2023-03-16T17:04:22.852Z,58.94
2023-03-16T17:07:11.623Z,59.13
2023-03-16T17:09:56.585Z,59.57
2023-03-16T17:12:42.273Z,60.41
2023-03-16T17:15:32.609Z,60.72
2023-03-16T17:18:18.060Z,60.97
2023-03-16T17:21:03.191Z,61.62
2023-03-16T17:23:49.229Z,62.25
2023-03-16T17:26:43.818Z,62.67
2023-03-16T17:29:31.753Z,62.90
2023-03-16T17:32:20.344Z,63.52
2023-03-16T17:35:13.449Z,63.53
2023-03-16T17:37:58.847Z,64.00
2023-03-16T17:40:44.398Z,64.24
2023-03-16T17:43:29.839Z,64.81
2023-03-16T17:46:18.889Z,65.08
2023-03-16T17:49:11.727Z,65.19
2023-03-16T17:51:57.099Z,65.79
2023-03-16T17:54:42.119Z,65.76
2023-03-16T17:57:32.016Z,66.13
2023-03-16T18:00:24.123Z,66.51
2023-03-16T18:03:14.579Z,66.68
2023-03-16T18:05:59.769Z,66.53
2023-03-16T18:08:47.968Z,67.15
2023-03-16T18:11:37.201Z,66.71
2023-03-16T18:14:37.220Z,67.42
2023-03-16T18:17:30.679Z,67.57
2023-03-16T18:20:28.532Z,67.95
2023-03-16T18:23:17.001Z,67.94
2023-03-16T18:26:03.203Z,68.34
2023-03-16T18:28:48.635Z,68.50
2023-03-16T18:31:34.287Z,68.98
2023-03-16T18:34:23.906Z,68.56
2023-03-16T18:37:26.585Z,68.55
2023-03-16T18:40:18.397Z,68.93
2023-03-16T18:43:03.970Z,68.76
2023-03-16T18:45:49.957Z,69.52
2023-03-16T18:48:35.764Z,69.64
2023-03-16T18:51:21.478Z,69.80
2023-03-16T18:54:26.860Z,69.94
2023-03-16T18:57:20.821Z,70.09
2023-03-16T19:00:06.236Z,70.63
2023-03-16T19:02:54.200Z,70.44
2023-03-16T19:05:39.515Z,70.79
2023-03-16T19:08:27.122Z,70.98
2023-03-16T19:11:12.411Z,71.09
2023-03-16T19:13:57.596Z,71.08
2023-03-16T19:16:43.198Z,71.39
2023-03-16T19:19:28.361Z,71.53
2023-03-16T19:22:18.481Z,72.02
2023-03-16T19:25:04.559Z,71.93
2023-03-16T19:27:50.309Z,72.19
2023-03-16T19:30:35.864Z,72.40
2023-03-16T19:33:23.832Z,72.85
2023-03-16T19:36:16.384Z,72.89
2023-03-16T19:39:01.955Z,72.94
2023-03-16T19:41:52.509Z,73.18
2023-03-16T19:44:37.948Z,73.55
2023-03-16T19:47:27.986Z,73.78
2023-03-16T19:50:22.646Z,74.00
2023-03-16T19:53:16.039Z,74.34
2023-03-16T19:56:01.576Z,74.37
2023-03-16T19:58:49.268Z,74.44
2023-03-16T20:01:34.619Z,74.85
2023-03-16T20:04:22.913Z,74.79
2023-03-16T20:07:15.566Z,74.76
2023-03-16T20:10:00.924Z,74.89
2023-03-16T20:12:48.658Z,74.65
2023-03-16T20:15:33.660Z,74.52
2023-03-16T20:18:18.827Z,74.89
2023-03-16T20:21:04.452Z,75.08
2023-03-16T20:23:49.655Z,75.09
2023-03-16T20:26:34.939Z,75.61
2023-03-16T20:29:31.762Z,75.55
2023-03-16T20:32:20.730Z,75.76
2023-03-16T20:35:14.484Z,76.19
2023-03-16T20:37:59.357Z,76.33
2023-03-16T20:40:46.718Z,75.97
2023-03-16T20:43:32.558Z,76.11
2023-03-16T20:46:22.614Z,76.31
2023-03-16T20:49:29.019Z,76.21
2023-03-16T20:52:19.623Z,76.55
2023-03-16T20:55:05.168Z,76.89
2023-03-16T20:57:52.460Z,77.04
2023-03-16T21:00:39.228Z,77.12
2023-03-16T21:03:27.324Z,77.18
2023-03-16T21:06:24.458Z,77.02
2023-03-16T21:09:09.714Z,77.23
2023-03-16T21:11:54.903Z,77.29
2023-03-16T21:14:40.672Z,77.21
2023-03-16T21:17:31.840Z,77.12
2023-03-16T21:20:21.010Z,77.43
2023-03-16T21:23:13.303Z,77.52
2023-03-16T21:26:02.367Z,77.30
2023-03-16T21:28:57.306Z,77.14
2023-03-16T21:31:43.045Z,77.29
2023-03-16T21:34:33.621Z,77.26
2023-03-16T21:37:22.441Z,77.31
2023-03-16T21:40:19.577Z,77.34
2023-03-16T21:43:05.125Z,77.57
2023-03-16T21:45:50.907Z,77.50
2023-03-16T21:48:38.014Z,77.72
2023-03-16T21:51:27.157Z,77.57
2023-03-16T21:54:14.189Z,77.54
2023-03-16T21:56:59.558Z,77.62
2023-03-16T21:59:44.487Z,77.24
2023-03-16T22:02:29.842Z,77.19
2023-03-16T22:05:39.767Z,77.10
2023-03-16T22:08:31.534Z,77.05
2023-03-16T22:11:20.755Z,77.16
2023-03-16T22:14:06.116Z,77.13
2023-03-16T22:16:51.609Z,77.13
2023-03-16T22:19:36.827Z,77.16
2023-03-16T22:22:21.636Z,77.31
2023-03-16T22:25:19.320Z,77.42
2023-03-16T22:28:11.577Z,77.18
2023-03-16T22:30:58.697Z,76.99
2023-03-16T22:33:44.822Z,77.30
2023-03-16T22:36:31.139Z,77.29
2023-03-16T22:39:16.481Z,77.39
2023-03-16T22:42:02.657Z,77.07
2023-03-16T22:44:47.893Z,77.42
2023-03-16T22:47:34.424Z,77.53
2023-03-16T22:50:21.199Z,77.62
2023-03-16T22:53:08.638Z,77.61
2023-03-16T22:55:56.328Z,77.37
2023-03-16T22:58:45.301Z,77.48
2023-03-16T23:01:34.120Z,77.24
2023-03-16T23:04:22.320Z,77.40
2023-03-16T23:07:12.389Z,77.25
2023-03-16T23:09:57.496Z,76.78
2023-03-16T23:12:42.572Z,76.85
2023-03-16T23:15:29.689Z,76.76
2023-03-16T23:18:17.015Z,77.06
2023-03-16T23:21:02.440Z,77.01
2023-03-16T23:24:02.593Z,76.73
2023-03-16T23:26:50.000Z,76.59
2023-03-16T23:29:35.327Z,76.78
2023-03-16T23:32:20.246Z,76.98
2023-03-16T23:35:13.406Z,76.53
2023-03-16T23:37:58.656Z,76.98
2023-03-16T23:40:43.863Z,77.29
2023-03-16T23:43:29.091Z,77.14
2023-03-16T23:46:17.260Z,76.71
2023-03-16T23:49:04.409Z,76.47
2023-03-16T23:51:50.471Z,76.63
2023-03-16T23:54:35.823Z,76.47
2023-03-16T23:57:20.837Z,76.30
